sensor_id;sensor_type;location;lat;lon;timestamp;temperature;humidity
51793;DHT22;37850;53.178;6.376;2023-03-20T00:00:50;7.40;99.90
51793;DHT22;37850;53.178;6.376;2023-03-20T00:03:16;7.40;99.90
51793;DHT22;37850;53.178;6.376;2023-03-20T00:05:42;7.40;99.90
51793;DHT22;37850;53.178;6.376;2023-03-20T00:08:08;7.40;99.90
51793;DHT22;37850;53.178;6.376;2023-03-20T00:10:45;7.40;99.90
51793;DHT22;37850;53.178;6.376;2023-03-20T00:13:24;7.80;99.90
51793;DHT22;37850;53.178;6.376;2023-03-20T00:15:52;7.80;99.90
51793;DHT22;37850;53.178;6.376;2023-03-20T00:18:22;7.30;99.90
51793;DHT22;37850;53.178;6.376;2023-03-20T00:20:50;7.30;99.90
51793;DHT22;37850;53.178;6.376;2023-03-20T00:23:16;7.30;99.90
51793;DHT22;37850;53.178;6.376;2023-03-20T00:25:44;7.30;99.90
51793;DHT22;37850;53.178;6.376;2023-03-20T00:28:36;7.30;99.90
51793;DHT22;37850;53.178;6.376;2023-03-20T00:31:24;7.30;99.90
51793;DHT22;37850;53.178;6.376;2023-03-20T00:33:56;7.30;99.90
51793;DHT22;37850;53.178;6.376;2023-03-20T00:36:23;7.30;99.90
51793;DHT22;37850;53.178;6.376;2023-03-20T00:38:49;7.30;99.90
51793;DHT22;37850;53.178;6.376;2023-03-20T00:41:29;7.30;99.90
51793;DHT22;37850;53.178;6.376;2023-03-20T00:44:02;7.30;99.90
51793;DHT22;37850;53.178;6.376;2023-03-20T00:46:37;7.20;99.90
51793;DHT22;37850;53.178;6.376;2023-03-20T00:49:03;7.30;99.90
51793;DHT22;37850;53.178;6.376;2023-03-20T00:51:29;7.30;99.90
51793;DHT22;37850;53.178;6.376;2023-03-20T00:53:56;7.40;99.90
51793;DHT22;37850;53.178;6.376;2023-03-20T00:56:34;7.30;99.90
51793;DHT22;37850;53.178;6.376;2023-03-20T00:59:02;7.30;99.90
51793;DHT22;37850;53.178;6.376;2023-03-20T01:01:29;7.30;99.90
51793;DHT22;37850;53.178;6.376;2023-03-20T01:03:57;7.30;99.90
51793;DHT22;37850;53.178;6.376;2023-03-20T01:06:23;7.30;99.90
51793;DHT22;37850;53.178;6.376;2023-03-20T01:08:49;7.30;99.90
51793;DHT22;37850;53.178;6.376;2023-03-20T01:11:20;7.30;99.90
51793;DHT22;37850;53.178;6.376;2023-03-20T01:13:47;7.30;99.90
51793;DHT22;37850;53.178;6.376;2023-03-20T01:16:20;7.30;99.90
51793;DHT22;37850;53.178;6.376;2023-03-20T01:18:46;7.30;99.90
51793;DHT22;37850;53.178;6.376;2023-03-20T01:21:12;7.30;99.90
51793;DHT22;37850;53.178;6.376;2023-03-20T01:23:38;7.30;99.90
51793;DHT22;37850;53.178;6.376;2023-03-20T01:26:11;7.30;99.90
51793;DHT22;37850;53.178;6.376;2023-03-20T01:28:47;7.30;99.90
51793;DHT22;37850;53.178;6.376;2023-03-20T01:31:15;7.30;99.90
51793;DHT22;37850;53.178;6.376;2023-03-20T01:33:41;7.30;99.90
51793;DHT22;37850;53.178;6.376;2023-03-20T01:36:10;7.30;99.90
51793;DHT22;37850;53.178;6.376;2023-03-20T01:38:36;7.30;99.90
51793;DHT22;37850;53.178;6.376;2023-03-20T01:41:06;7.30;99.90
51793;DHT22;37850;53.178;6.376;2023-03-20T01:43:33;7.30;99.90
51793;DHT22;37850;53.178;6.376;2023-03-20T01:51:19;7.40;99.90
51793;DHT22;37850;53.178;6.376;2023-03-20T01:54:04;7.40;99.90
51793;DHT22;37850;53.178;6.376;2023-03-20T01:56:33;7.40;99.90
51793;DHT22;37850;53.178;6.376;2023-03-20T01:59:12;7.40;99.90
51793;DHT22;37850;53.178;6.376;2023-03-20T02:01:39;7.40;99.90
51793;DHT22;37850;53.178;6.376;2023-03-20T02:04:06;7.40;99.90
51793;DHT22;37850;53.178;6.376;2023-03-20T02:06:34;7.40;99.90
51793;DHT22;37850;53.178;6.376;2023-03-20T02:09:01;7.40;99.90
51793;DHT22;37850;53.178;6.376;2023-03-20T02:11:27;7.40;99.90
51793;DHT22;37850;53.178;6.376;2023-03-20T02:13:56;7.40;99.90
51793;DHT22;37850;53.178;6.376;2023-03-20T02:16:25;7.40;99.90
51793;DHT22;37850;53.178;6.376;2023-03-20T02:18:52;7.40;99.90
51793;DHT22;37850;53.178;6.376;2023-03-20T02:48:38;7.50;99.90
51793;DHT22;37850;53.178;6.376;2023-03-20T02:51:13;7.50;99.90
51793;DHT22;37850;53.178;6.376;2023-03-20T02:53:51;7.40;99.90
51793;DHT22;37850;53.178;6.376;2023-03-20T02:56:34;7.40;99.90
51793;DHT22;37850;53.178;6.376;2023-03-20T03:01:45;7.50;99.90
51793;DHT22;37850;53.178;6.376;2023-03-20T03:04:20;7.50;99.90
51793;DHT22;37850;53.178;6.376;2023-03-20T03:06:49;7.50;99.90
51793;DHT22;37850;53.178;6.376;2023-03-20T03:12:24;7.50;99.90
51793;DHT22;37850;53.178;6.376;2023-03-20T03:14:55;7.50;99.90
51793;DHT22;37850;53.178;6.376;2023-03-20T03:17:25;7.50;99.90
51793;DHT22;37850;53.178;6.376;2023-03-20T03:19:56;7.50;99.90
51793;DHT22;37850;53.178;6.376;2023-03-20T03:22:23;7.50;99.90
51793;DHT22;37850;53.178;6.376;2023-03-20T03:24:53;7.50;99.90
51793;DHT22;37850;53.178;6.376;2023-03-20T03:27:37;7.50;99.90
51793;DHT22;37850;53.178;6.376;2023-03-20T03:30:11;7.50;99.90
51793;DHT22;37850;53.178;6.376;2023-03-20T03:32:49;7.50;99.90
51793;DHT22;37850;53.178;6.376;2023-03-20T03:35:20;7.50;99.90
51793;DHT22;37850;53.178;6.376;2023-03-20T03:43:30;7.50;99.90
51793;DHT22;37850;53.178;6.376;2023-03-20T03:46:01;7.60;99.90
51793;DHT22;37850;53.178;6.376;2023-03-20T03:48:34;7.50;99.90
51793;DHT22;37850;53.178;6.376;2023-03-20T03:51:06;7.50;99.90
51793;DHT22;37850;53.178;6.376;2023-03-20T03:53:40;7.50;99.90
51793;DHT22;37850;53.178;6.376;2023-03-20T03:56:11;7.50;99.90
51793;DHT22;37850;53.178;6.376;2023-03-20T03:58:50;7.70;99.90
51793;DHT22;37850;53.178;6.376;2023-03-20T04:01:17;7.50;99.90
51793;DHT22;37850;53.178;6.376;2023-03-20T04:04:00;7.60;99.90
51793;DHT22;37850;53.178;6.376;2023-03-20T04:06:27;7.50;99.90
51793;DHT22;37850;53.178;6.376;2023-03-20T04:08:53;7.50;99.90
51793;DHT22;37850;53.178;6.376;2023-03-20T04:11:21;7.50;99.90
51793;DHT22;37850;53.178;6.376;2023-03-20T04:13:51;7.50;99.90
51793;DHT22;37850;53.178;6.376;2023-03-20T04:16:18;7.50;99.90
51793;DHT22;37850;53.178;6.376;2023-03-20T04:18:45;7.50;99.90
51793;DHT22;37850;53.178;6.376;2023-03-20T04:21:12;7.50;99.90
51793;DHT22;37850;53.178;6.376;2023-03-20T04:23:38;7.50;99.90
51793;DHT22;37850;53.178;6.376;2023-03-20T04:26:04;7.50;99.90
51793;DHT22;37850;53.178;6.376;2023-03-20T04:28:30;7.50;99.90
51793;DHT22;37850;53.178;6.376;2023-03-20T04:30:58;7.50;99.90
51793;DHT22;37850;53.178;6.376;2023-03-20T04:33:24;7.70;99.90
51793;DHT22;37850;53.178;6.376;2023-03-20T04:35:51;7.60;99.90
51793;DHT22;37850;53.178;6.376;2023-03-20T04:38:17;7.50;99.90
51793;DHT22;37850;53.178;6.376;2023-03-20T04:40:44;7.50;99.90
51793;DHT22;37850;53.178;6.376;2023-03-20T04:43:11;7.50;99.90
51793;DHT22;37850;53.178;6.376;2023-03-20T04:45:36;7.50;99.90
51793;DHT22;37850;53.178;6.376;2023-03-20T04:48:02;7.40;99.90
51793;DHT22;37850;53.178;6.376;2023-03-20T04:50:28;7.50;99.90
51793;DHT22;37850;53.178;6.376;2023-03-20T04:52:53;7.40;99.90
51793;DHT22;37850;53.178;6.376;2023-03-20T04:55:19;7.50;99.90
51793;DHT22;37850;53.178;6.376;2023-03-20T04:57:47;7.40;99.90
51793;DHT22;37850;53.178;6.376;2023-03-20T05:00:13;7.50;99.90
51793;DHT22;37850;53.178;6.376;2023-03-20T05:02:39;7.40;99.90
51793;DHT22;37850;53.178;6.376;2023-03-20T05:05:05;7.50;99.90
51793;DHT22;37850;53.178;6.376;2023-03-20T05:07:31;7.40;99.90
51793;DHT22;37850;53.178;6.376;2023-03-20T05:09:57;7.40;99.90
51793;DHT22;37850;53.178;6.376;2023-03-20T05:12:23;7.50;99.90
51793;DHT22;37850;53.178;6.376;2023-03-20T05:14:52;7.40;99.90
51793;DHT22;37850;53.178;6.376;2023-03-20T05:17:20;7.40;99.90
51793;DHT22;37850;53.178;6.376;2023-03-20T05:19:46;7.40;99.90
51793;DHT22;37850;53.178;6.376;2023-03-20T05:22:12;7.40;99.90
51793;DHT22;37850;53.178;6.376;2023-03-20T05:24:38;7.60;99.90
51793;DHT22;37850;53.178;6.376;2023-03-20T05:27:04;7.50;99.90
51793;DHT22;37850;53.178;6.376;2023-03-20T05:29:29;7.80;99.90
51793;DHT22;37850;53.178;6.376;2023-03-20T05:31:55;7.40;99.90
51793;DHT22;37850;53.178;6.376;2023-03-20T05:34:21;7.50;99.90
51793;DHT22;37850;53.178;6.376;2023-03-20T05:36:47;7.50;99.90
51793;DHT22;37850;53.178;6.376;2023-03-20T05:39:13;7.40;99.90
51793;DHT22;37850;53.178;6.376;2023-03-20T05:41:38;7.40;99.90
51793;DHT22;37850;53.178;6.376;2023-03-20T05:44:04;7.40;99.90
51793;DHT22;37850;53.178;6.376;2023-03-20T05:46:30;7.40;99.90
51793;DHT22;37850;53.178;6.376;2023-03-20T05:48:56;7.40;99.90
51793;DHT22;37850;53.178;6.376;2023-03-20T05:51:22;7.40;99.90
51793;DHT22;37850;53.178;6.376;2023-03-20T05:53:48;7.20;99.90
51793;DHT22;37850;53.178;6.376;2023-03-20T05:56:13;7.40;99.90
51793;DHT22;37850;53.178;6.376;2023-03-20T05:58:39;7.40;99.90
51793;DHT22;37850;53.178;6.376;2023-03-20T06:01:06;7.90;99.90
51793;DHT22;37850;53.178;6.376;2023-03-20T06:03:32;7.40;99.90
51793;DHT22;37850;53.178;6.376;2023-03-20T06:05:58;7.80;99.90
51793;DHT22;37850;53.178;6.376;2023-03-20T06:08:23;7.40;99.90
51793;DHT22;37850;53.178;6.376;2023-03-20T06:10:50;7.40;99.90
51793;DHT22;37850;53.178;6.376;2023-03-20T06:13:16;7.20;99.90
51793;DHT22;37850;53.178;6.376;2023-03-20T06:15:42;7.40;99.90
51793;DHT22;37850;53.178;6.376;2023-03-20T06:18:08;7.40;99.90
51793;DHT22;37850;53.178;6.376;2023-03-20T06:20:34;7.30;99.90
51793;DHT22;37850;53.178;6.376;2023-03-20T06:23:00;7.40;99.90
51793;DHT22;37850;53.178;6.376;2023-03-20T06:25:25;7.40;99.90
51793;DHT22;37850;53.178;6.376;2023-03-20T06:27:51;7.40;99.90
51793;DHT22;37850;53.178;6.376;2023-03-20T06:30:17;7.40;99.90
51793;DHT22;37850;53.178;6.376;2023-03-20T06:32:43;7.40;99.90
51793;DHT22;37850;53.178;6.376;2023-03-20T06:35:10;7.40;99.90
51793;DHT22;37850;53.178;6.376;2023-03-20T06:37:37;7.40;99.90
51793;DHT22;37850;53.178;6.376;2023-03-20T06:40:03;7.40;99.90
51793;DHT22;37850;53.178;6.376;2023-03-20T06:42:29;7.50;99.90
51793;DHT22;37850;53.178;6.376;2023-03-20T06:44:55;7.50;99.90
51793;DHT22;37850;53.178;6.376;2023-03-20T06:47:24;7.00;99.90
51793;DHT22;37850;53.178;6.376;2023-03-20T06:49:50;7.50;99.90
51793;DHT22;37850;53.178;6.376;2023-03-20T06:52:18;7.80;99.90
51793;DHT22;37850;53.178;6.376;2023-03-20T06:54:44;7.50;99.90
51793;DHT22;37850;53.178;6.376;2023-03-20T06:57:10;7.50;99.90
51793;DHT22;37850;53.178;6.376;2023-03-20T06:59:36;7.80;99.90
51793;DHT22;37850;53.178;6.376;2023-03-20T07:02:02;7.50;99.90
51793;DHT22;37850;53.178;6.376;2023-03-20T07:04:28;7.60;99.90
51793;DHT22;37850;53.178;6.376;2023-03-20T07:06:54;7.60;99.90
51793;DHT22;37850;53.178;6.376;2023-03-20T07:09:20;7.50;99.90
51793;DHT22;37850;53.178;6.376;2023-03-20T07:11:52;7.60;99.90
51793;DHT22;37850;53.178;6.376;2023-03-20T07:14:19;7.60;99.90
51793;DHT22;37850;53.178;6.376;2023-03-20T07:16:45;7.60;99.90
51793;DHT22;37850;53.178;6.376;2023-03-20T07:19:11;7.60;99.90
51793;DHT22;37850;53.178;6.376;2023-03-20T07:21:38;7.60;99.90
51793;DHT22;37850;53.178;6.376;2023-03-20T07:24:04;7.70;99.90
51793;DHT22;37850;53.178;6.376;2023-03-20T07:26:31;7.70;99.90
51793;DHT22;37850;53.178;6.376;2023-03-20T07:28:57;7.80;99.90
51793;DHT22;37850;53.178;6.376;2023-03-20T07:31:26;7.80;99.90
51793;DHT22;37850;53.178;6.376;2023-03-20T07:33:53;8.10;99.90
51793;DHT22;37850;53.178;6.376;2023-03-20T07:36:19;7.90;99.90
51793;DHT22;37850;53.178;6.376;2023-03-20T07:38:45;7.90;99.90
51793;DHT22;37850;53.178;6.376;2023-03-20T07:41:11;8.10;99.90
51793;DHT22;37850;53.178;6.376;2023-03-20T07:43:37;7.90;99.90
51793;DHT22;37850;53.178;6.376;2023-03-20T07:46:07;8.00;99.90
51793;DHT22;37850;53.178;6.376;2023-03-20T07:48:36;8.00;99.90
51793;DHT22;37850;53.178;6.376;2023-03-20T07:51:02;8.00;99.90
51793;DHT22;37850;53.178;6.376;2023-03-20T07:53:27;8.00;99.90
51793;DHT22;37850;53.178;6.376;2023-03-20T07:55:53;8.20;99.90
51793;DHT22;37850;53.178;6.376;2023-03-20T07:58:19;8.40;99.90
51793;DHT22;37850;53.178;6.376;2023-03-20T08:00:45;8.00;99.90
51793;DHT22;37850;53.178;6.376;2023-03-20T08:03:11;8.00;99.90
51793;DHT22;37850;53.178;6.376;2023-03-20T08:05:36;8.00;99.90
51793;DHT22;37850;53.178;6.376;2023-03-20T08:08:02;8.10;99.90
51793;DHT22;37850;53.178;6.376;2023-03-20T08:10:28;8.10;99.90
51793;DHT22;37850;53.178;6.376;2023-03-20T08:12:54;8.10;99.90
51793;DHT22;37850;53.178;6.376;2023-03-20T08:15:21;8.10;99.90
51793;DHT22;37850;53.178;6.376;2023-03-20T08:17:47;8.20;99.90
51793;DHT22;37850;53.178;6.376;2023-03-20T08:20:14;8.20;99.90
51793;DHT22;37850;53.178;6.376;2023-03-20T08:22:40;8.20;99.90
51793;DHT22;37850;53.178;6.376;2023-03-20T08:25:07;8.30;99.90
51793;DHT22;37850;53.178;6.376;2023-03-20T08:27:34;8.20;99.90
51793;DHT22;37850;53.178;6.376;2023-03-20T08:30:01;8.20;99.90
51793;DHT22;37850;53.178;6.376;2023-03-20T08:32:27;8.30;99.90
51793;DHT22;37850;53.178;6.376;2023-03-20T08:34:53;8.30;99.90
51793;DHT22;37850;53.178;6.376;2023-03-20T08:37:21;8.30;99.90
51793;DHT22;37850;53.178;6.376;2023-03-20T08:39:47;8.30;99.90
51793;DHT22;37850;53.178;6.376;2023-03-20T08:42:13;8.30;99.90
51793;DHT22;37850;53.178;6.376;2023-03-20T08:44:39;8.30;99.90
51793;DHT22;37850;53.178;6.376;2023-03-20T08:47:05;8.30;99.90
51793;DHT22;37850;53.178;6.376;2023-03-20T08:49:32;8.40;99.90
51793;DHT22;37850;53.178;6.376;2023-03-20T08:51:59;8.40;99.90
51793;DHT22;37850;53.178;6.376;2023-03-20T08:54:25;8.40;99.90
51793;DHT22;37850;53.178;6.376;2023-03-20T08:56:51;8.40;99.90
51793;DHT22;37850;53.178;6.376;2023-03-20T08:59:18;8.50;99.90
51793;DHT22;37850;53.178;6.376;2023-03-20T09:01:44;8.50;99.90
51793;DHT22;37850;53.178;6.376;2023-03-20T09:04:12;8.50;99.90
51793;DHT22;37850;53.178;6.376;2023-03-20T09:06:38;8.60;99.90
51793;DHT22;37850;53.178;6.376;2023-03-20T09:09:04;8.60;99.90
51793;DHT22;37850;53.178;6.376;2023-03-20T09:11:30;8.60;99.90
51793;DHT22;37850;53.178;6.376;2023-03-20T09:13:57;8.70;99.90
51793;DHT22;37850;53.178;6.376;2023-03-20T09:16:22;8.70;99.90
51793;DHT22;37850;53.178;6.376;2023-03-20T09:18:48;8.80;99.90
51793;DHT22;37850;53.178;6.376;2023-03-20T09:21:14;8.80;99.90
51793;DHT22;37850;53.178;6.376;2023-03-20T09:23:41;8.80;99.90
51793;DHT22;37850;53.178;6.376;2023-03-20T09:26:07;8.90;99.90
51793;DHT22;37850;53.178;6.376;2023-03-20T09:28:32;8.90;99.90
51793;DHT22;37850;53.178;6.376;2023-03-20T09:30:59;9.00;99.90
51793;DHT22;37850;53.178;6.376;2023-03-20T09:33:25;9.00;99.90
51793;DHT22;37850;53.178;6.376;2023-03-20T09:35:51;9.00;99.90
51793;DHT22;37850;53.178;6.376;2023-03-20T09:38:17;9.00;99.90
51793;DHT22;37850;53.178;6.376;2023-03-20T09:41:04;9.00;99.90
51793;DHT22;37850;53.178;6.376;2023-03-20T09:49:44;9.10;99.90
51793;DHT22;37850;53.178;6.376;2023-03-20T09:52:31;9.20;99.90
51793;DHT22;37850;53.178;6.376;2023-03-20T09:55:12;9.30;99.90
51793;DHT22;37850;53.178;6.376;2023-03-20T09:57:41;9.40;99.90
51793;DHT22;37850;53.178;6.376;2023-03-20T10:00:19;9.40;99.90
51793;DHT22;37850;53.178;6.376;2023-03-20T10:05:28;9.60;99.90
51793;DHT22;37850;53.178;6.376;2023-03-20T10:07:55;9.50;99.90
51793;DHT22;37850;53.178;6.376;2023-03-20T10:16:03;9.90;99.90
51793;DHT22;37850;53.178;6.376;2023-03-20T10:18:37;9.70;99.90
51793;DHT22;37850;53.178;6.376;2023-03-20T10:21:16;9.80;99.90
51793;DHT22;37850;53.178;6.376;2023-03-20T10:24:02;9.70;99.90
51793;DHT22;37850;53.178;6.376;2023-03-20T10:26:31;9.70;99.90
51793;DHT22;37850;53.178;6.376;2023-03-20T10:29:00;10.00;99.90
51793;DHT22;37850;53.178;6.376;2023-03-20T10:31:36;9.70;99.90
51793;DHT22;37850;53.178;6.376;2023-03-20T10:36:46;9.80;99.90
51793;DHT22;37850;53.178;6.376;2023-03-20T10:41:41;10.20;99.90
51793;DHT22;37850;53.178;6.376;2023-03-20T10:44:15;9.90;99.90
51793;DHT22;37850;53.178;6.376;2023-03-20T10:46:46;10.00;99.90
51793;DHT22;37850;53.178;6.376;2023-03-20T10:49:36;10.00;99.90
51793;DHT22;37850;53.178;6.376;2023-03-20T10:52:09;10.00;99.90
51793;DHT22;37850;53.178;6.376;2023-03-20T10:54:42;10.00;99.90
51793;DHT22;37850;53.178;6.376;2023-03-20T10:57:24;9.90;99.90
51793;DHT22;37850;53.178;6.376;2023-03-20T10:59:51;10.00;99.90
51793;DHT22;37850;53.178;6.376;2023-03-20T11:02:20;9.90;99.90
51793;DHT22;37850;53.178;6.376;2023-03-20T11:04:48;9.90;99.90
51793;DHT22;37850;53.178;6.376;2023-03-20T11:07:34;9.80;99.90
51793;DHT22;37850;53.178;6.376;2023-03-20T11:12:46;9.80;99.90
51793;DHT22;37850;53.178;6.376;2023-03-20T11:17:50;9.70;99.90
51793;DHT22;37850;53.178;6.376;2023-03-20T11:20:17;9.70;99.90
51793;DHT22;37850;53.178;6.376;2023-03-20T11:22:42;9.70;99.90
51793;DHT22;37850;53.178;6.376;2023-03-20T11:25:27;9.70;99.90
51793;DHT22;37850;53.178;6.376;2023-03-20T11:27:54;9.70;99.90
51793;DHT22;37850;53.178;6.376;2023-03-20T11:30:21;9.80;99.90
51793;DHT22;37850;53.178;6.376;2023-03-20T11:32:49;9.80;99.90
51793;DHT22;37850;53.178;6.376;2023-03-20T11:35:21;9.70;99.90
51793;DHT22;37850;53.178;6.376;2023-03-20T11:38:06;9.70;99.90
51793;DHT22;37850;53.178;6.376;2023-03-20T11:40:33;9.80;99.90
51793;DHT22;37850;53.178;6.376;2023-03-20T11:43:11;9.70;99.90
51793;DHT22;37850;53.178;6.376;2023-03-20T11:45:40;9.70;99.90
51793;DHT22;37850;53.178;6.376;2023-03-20T11:48:18;9.80;99.90
51793;DHT22;37850;53.178;6.376;2023-03-20T11:51:02;9.70;99.90
51793;DHT22;37850;53.178;6.376;2023-03-20T11:56:13;9.70;99.90
51793;DHT22;37850;53.178;6.376;2023-03-20T11:58:54;9.60;99.90
51793;DHT22;37850;53.178;6.376;2023-03-20T12:01:21;9.50;99.90
51793;DHT22;37850;53.178;6.376;2023-03-20T12:04:08;9.60;99.90
51793;DHT22;37850;53.178;6.376;2023-03-20T12:06:43;9.50;99.90
51793;DHT22;37850;53.178;6.376;2023-03-20T12:10:13;9.60;99.90
51793;DHT22;37850;53.178;6.376;2023-03-20T12:17:50;9.80;99.90
51793;DHT22;37850;53.178;6.376;2023-03-20T12:20:29;9.50;99.90
51793;DHT22;37850;53.178;6.376;2023-03-20T12:28:26;9.50;99.90
51793;DHT22;37850;53.178;6.376;2023-03-20T12:31:23;9.50;99.90
51793;DHT22;37850;53.178;6.376;2023-03-20T12:33:56;9.50;99.90
51793;DHT22;37850;53.178;6.376;2023-03-20T12:36:28;9.50;99.90
51793;DHT22;37850;53.178;6.376;2023-03-20T12:38:57;9.40;99.90
51793;DHT22;37850;53.178;6.376;2023-03-20T12:41:28;9.40;99.90
51793;DHT22;37850;53.178;6.376;2023-03-20T12:44:03;9.80;99.90
51793;DHT22;37850;53.178;6.376;2023-03-20T12:57:35;9.20;99.90
51793;DHT22;37850;53.178;6.376;2023-03-20T13:19:32;9.10;99.90
51793;DHT22;37850;53.178;6.376;2023-03-20T13:22:00;9.10;99.90
51793;DHT22;37850;53.178;6.376;2023-03-20T13:32:33;9.00;99.90
51793;DHT22;37850;53.178;6.376;2023-03-20T13:37:44;9.00;99.90
51793;DHT22;37850;53.178;6.376;2023-03-20T13:40:21;8.90;99.90
51793;DHT22;37850;53.178;6.376;2023-03-20T13:45:38;9.00;99.90
51793;DHT22;37850;53.178;6.376;2023-03-20T13:48:43;9.00;99.90
51793;DHT22;37850;53.178;6.376;2023-03-20T13:51:35;9.00;99.90
51793;DHT22;37850;53.178;6.376;2023-03-20T13:56:58;9.00;99.90
51793;DHT22;37850;53.178;6.376;2023-03-20T13:59:32;9.00;99.90
51793;DHT22;37850;53.178;6.376;2023-03-20T14:04:32;9.00;99.90
51793;DHT22;37850;53.178;6.376;2023-03-20T14:06:59;9.00;99.90
51793;DHT22;37850;53.178;6.376;2023-03-20T14:09:32;8.90;99.90
51793;DHT22;37850;53.178;6.376;2023-03-20T14:12:07;9.00;99.90
51793;DHT22;37850;53.178;6.376;2023-03-20T14:14:45;8.90;99.90
51793;DHT22;37850;53.178;6.376;2023-03-20T14:17:20;8.90;99.90
51793;DHT22;37850;53.178;6.376;2023-03-20T14:19:48;8.90;99.90
51793;DHT22;37850;53.178;6.376;2023-03-20T14:22:32;8.90;99.90
51793;DHT22;37850;53.178;6.376;2023-03-20T14:25:04;8.90;99.90
51793;DHT22;37850;53.178;6.376;2023-03-20T14:27:35;8.90;99.90
51793;DHT22;37850;53.178;6.376;2023-03-20T14:33:24;8.90;99.90
51793;DHT22;37850;53.178;6.376;2023-03-20T14:36:17;8.80;99.90
51793;DHT22;37850;53.178;6.376;2023-03-20T14:58:54;8.80;99.90
51793;DHT22;37850;53.178;6.376;2023-03-20T15:01:26;8.80;99.90
51793;DHT22;37850;53.178;6.376;2023-03-20T15:03:59;8.80;99.90
51793;DHT22;37850;53.178;6.376;2023-03-20T15:06:27;8.80;99.90
51793;DHT22;37850;53.178;6.376;2023-03-20T15:09:06;8.80;99.90
51793;DHT22;37850;53.178;6.376;2023-03-20T15:11:33;8.80;99.90
51793;DHT22;37850;53.178;6.376;2023-03-20T15:14:01;8.70;99.90
51793;DHT22;37850;53.178;6.376;2023-03-20T15:16:31;9.10;99.90
51793;DHT22;37850;53.178;6.376;2023-03-20T15:19:00;8.80;99.90
51793;DHT22;37850;53.178;6.376;2023-03-20T15:21:39;8.70;99.90
51793;DHT22;37850;53.178;6.376;2023-03-20T15:24:06;8.70;99.90
51793;DHT22;37850;53.178;6.376;2023-03-20T15:26:34;8.70;99.90
51793;DHT22;37850;53.178;6.376;2023-03-20T15:29:10;8.80;99.90
51793;DHT22;37850;53.178;6.376;2023-03-20T15:31:38;8.70;99.90
51793;DHT22;37850;53.178;6.376;2023-03-20T15:34:23;8.70;99.90
51793;DHT22;37850;53.178;6.376;2023-03-20T15:36:51;8.80;99.90
51793;DHT22;37850;53.178;6.376;2023-03-20T15:39:22;8.80;99.90
51793;DHT22;37850;53.178;6.376;2023-03-20T15:41:55;8.80;99.90
51793;DHT22;37850;53.178;6.376;2023-03-20T15:44:36;8.80;99.90
51793;DHT22;37850;53.178;6.376;2023-03-20T15:47:20;8.80;99.90
51793;DHT22;37850;53.178;6.376;2023-03-20T15:49:58;8.80;99.90
51793;DHT22;37850;53.178;6.376;2023-03-20T15:52:29;8.80;99.90
51793;DHT22;37850;53.178;6.376;2023-03-20T15:54:58;8.80;99.90
51793;DHT22;37850;53.178;6.376;2023-03-20T15:57:30;9.00;99.90
51793;DHT22;37850;53.178;6.376;2023-03-20T15:59:57;8.80;99.90
51793;DHT22;37850;53.178;6.376;2023-03-20T16:02:24;8.80;99.90
51793;DHT22;37850;53.178;6.376;2023-03-20T16:04:52;8.80;99.90
51793;DHT22;37850;53.178;6.376;2023-03-20T16:07:26;8.80;99.90
51793;DHT22;37850;53.178;6.376;2023-03-20T16:09:53;8.70;99.90
51793;DHT22;37850;53.178;6.376;2023-03-20T16:12:19;9.00;99.90
51793;DHT22;37850;53.178;6.376;2023-03-20T16:14:46;8.80;99.90
51793;DHT22;37850;53.178;6.376;2023-03-20T16:17:15;9.10;99.90
51793;DHT22;37850;53.178;6.376;2023-03-20T16:19:41;9.20;99.90
51793;DHT22;37850;53.178;6.376;2023-03-20T16:22:28;8.80;99.90
51793;DHT22;37850;53.178;6.376;2023-03-20T16:24:57;8.80;99.90
51793;DHT22;37850;53.178;6.376;2023-03-20T16:27:38;8.90;99.90
51793;DHT22;37850;53.178;6.376;2023-03-20T16:30:14;8.80;99.90
51793;DHT22;37850;53.178;6.376;2023-03-20T16:32:42;8.80;99.90
51793;DHT22;37850;53.178;6.376;2023-03-20T16:35:29;9.20;99.90
51793;DHT22;37850;53.178;6.376;2023-03-20T16:37:59;8.80;99.90
51793;DHT22;37850;53.178;6.376;2023-03-20T16:40:33;8.80;99.90
51793;DHT22;37850;53.178;6.376;2023-03-20T16:43:14;8.50;99.90
51793;DHT22;37850;53.178;6.376;2023-03-20T16:45:51;9.30;99.90
51793;DHT22;37850;53.178;6.376;2023-03-20T16:48:31;8.90;99.90
51793;DHT22;37850;53.178;6.376;2023-03-20T16:53:27;8.90;99.90
51793;DHT22;37850;53.178;6.376;2023-03-20T16:55:55;8.90;99.90
51793;DHT22;37850;53.178;6.376;2023-03-20T16:58:30;9.10;99.90
51793;DHT22;37850;53.178;6.376;2023-03-20T17:01:00;8.90;99.90
51793;DHT22;37850;53.178;6.376;2023-03-20T17:03:35;8.80;99.90
51793;DHT22;37850;53.178;6.376;2023-03-20T17:06:10;9.30;99.90
51793;DHT22;37850;53.178;6.376;2023-03-20T17:08:59;8.90;99.90
51793;DHT22;37850;53.178;6.376;2023-03-20T17:11:31;8.90;99.90
51793;DHT22;37850;53.178;6.376;2023-03-20T17:13:58;8.80;99.90
51793;DHT22;37850;53.178;6.376;2023-03-20T17:16:25;9.10;99.90
51793;DHT22;37850;53.178;6.376;2023-03-20T17:19:13;8.90;99.90
51793;DHT22;37850;53.178;6.376;2023-03-20T17:21:39;8.80;99.90
51793;DHT22;37850;53.178;6.376;2023-03-20T17:24:05;8.80;99.90
51793;DHT22;37850;53.178;6.376;2023-03-20T17:26:34;8.80;99.90
51793;DHT22;37850;53.178;6.376;2023-03-20T17:28:59;8.80;99.90
51793;DHT22;37850;53.178;6.376;2023-03-20T17:31:28;9.00;99.90
51793;DHT22;37850;53.178;6.376;2023-03-20T17:33:57;8.90;99.90
51793;DHT22;37850;53.178;6.376;2023-03-20T17:36:25;8.80;99.90
51793;DHT22;37850;53.178;6.376;2023-03-20T17:39:01;8.80;99.90
51793;DHT22;37850;53.178;6.376;2023-03-20T17:41:27;9.00;99.90
51793;DHT22;37850;53.178;6.376;2023-03-20T17:43:56;8.80;99.90
51793;DHT22;37850;53.178;6.376;2023-03-20T17:46:29;8.80;99.90
51793;DHT22;37850;53.178;6.376;2023-03-20T17:49:09;8.90;99.90
51793;DHT22;37850;53.178;6.376;2023-03-20T17:51:39;8.80;99.90
51793;DHT22;37850;53.178;6.376;2023-03-20T17:54:11;8.70;99.90
51793;DHT22;37850;53.178;6.376;2023-03-20T17:56:40;9.10;99.90
51793;DHT22;37850;53.178;6.376;2023-03-20T17:59:12;8.80;99.90
51793;DHT22;37850;53.178;6.376;2023-03-20T18:12:25;8.80;99.90
51793;DHT22;37850;53.178;6.376;2023-03-20T18:14:51;8.80;99.90
51793;DHT22;37850;53.178;6.376;2023-03-20T18:17:17;8.80;99.90
51793;DHT22;37850;53.178;6.376;2023-03-20T18:19:43;8.80;99.90
51793;DHT22;37850;53.178;6.376;2023-03-20T18:22:09;8.80;99.90
51793;DHT22;37850;53.178;6.376;2023-03-20T18:24:38;8.90;99.90
51793;DHT22;37850;53.178;6.376;2023-03-20T18:27:09;8.80;99.90
51793;DHT22;37850;53.178;6.376;2023-03-20T18:29:35;8.90;99.90
51793;DHT22;37850;53.178;6.376;2023-03-20T18:32:01;8.90;99.90
51793;DHT22;37850;53.178;6.376;2023-03-20T18:34:27;8.90;99.90
51793;DHT22;37850;53.178;6.376;2023-03-20T18:36:53;8.80;99.90
51793;DHT22;37850;53.178;6.376;2023-03-20T18:39:25;8.80;99.90
51793;DHT22;37850;53.178;6.376;2023-03-20T18:41:52;8.80;99.90
51793;DHT22;37850;53.178;6.376;2023-03-20T18:44:18;8.80;99.90
51793;DHT22;37850;53.178;6.376;2023-03-20T18:46:46;8.90;99.90
51793;DHT22;37850;53.178;6.376;2023-03-20T18:49:16;8.80;99.90
51793;DHT22;37850;53.178;6.376;2023-03-20T18:51:45;8.80;99.90